createdAt,value
2022-12-14T00:02:09.230Z,71.69
2022-12-14T00:04:52.364Z,72.12
2022-12-14T00:07:35.495Z,72.38
2022-12-14T00:10:20.499Z,72.80
2022-12-14T00:13:04.192Z,72.46
2022-12-14T00:15:47.258Z,73.26
2022-12-14T00:18:30.383Z,72.65
2022-12-14T00:21:15.136Z,73.22
2022-12-14T00:24:00.561Z,74.45
2022-12-14T00:26:45.230Z,74.52
2022-12-14T00:29:28.363Z,74.30
2022-12-14T00:32:11.438Z,74.42
2022-12-14T00:34:54.513Z,74.55
2022-12-14T00:37:38.083Z,75.22
2022-12-14T00:40:21.263Z,74.70
2022-12-14T00:43:05.765Z,74.74
2022-12-14T00:45:49.059Z,75.88
2022-12-14T00:48:32.432Z,75.54
2022-12-14T00:51:15.916Z,75.47
2022-12-14T00:54:00.042Z,75.76
2022-12-14T00:56:43.086Z,75.74
2022-12-14T00:59:27.709Z,77.42
2022-12-14T01:02:10.870Z,76.37
2022-12-14T01:04:53.960Z,76.74
2022-12-14T01:07:37.440Z,78.14
2022-12-14T01:10:20.613Z,78.25
2022-12-14T01:13:03.640Z,78.64
2022-12-14T01:15:48.204Z,79.97
2022-12-14T01:18:34.762Z,78.89
2022-12-14T01:21:19.404Z,78.69
2022-12-14T01:24:04.051Z,79.12
2022-12-14T01:26:47.189Z,79.07
2022-12-14T01:29:30.760Z,79.98
2022-12-14T01:32:15.343Z,79.73
2022-12-14T01:34:58.436Z,80.00
2022-12-14T01:37:41.485Z,80.71
2022-12-14T01:40:24.593Z,81.09
2022-12-14T01:43:26.746Z,81.01
2022-12-14T01:46:10.220Z,80.66
2022-12-14T01:48:58.155Z,79.75
2022-12-14T01:51:45.735Z,80.23
2022-12-14T01:54:33.959Z,80.62
2022-12-14T01:57:20.611Z,80.49
2022-12-14T02:00:07.548Z,81.25
2022-12-14T02:02:57.514Z,80.89
2022-12-14T02:05:47.742Z,81.56
2022-12-14T02:08:31.257Z,81.43
2022-12-14T02:11:14.392Z,81.84
2022-12-14T02:13:57.904Z,81.48
2022-12-14T02:16:42.489Z,80.97
2022-12-14T02:19:25.682Z,81.56
2022-12-14T02:22:34.356Z,80.47
2022-12-14T02:25:51.263Z,80.25
2022-12-14T02:29:18.017Z,80.47
2022-12-14T02:32:17.116Z,79.70
2022-12-14T02:35:05.946Z,79.25
2022-12-14T02:37:58.987Z,77.83
2022-12-14T02:40:48.904Z,77.87
2022-12-14T02:43:39.549Z,77.10
2022-12-14T02:46:29.805Z,76.88
2022-12-14T02:49:16.869Z,77.34
2022-12-14T02:52:06.509Z,77.20
2022-12-14T02:54:54.480Z,77.38
2022-12-14T02:57:42.728Z,76.76
2022-12-14T03:00:28.931Z,74.63
2022-12-14T03:03:13.631Z,75.30
2022-12-14T03:05:58.060Z,74.90
2022-12-14T03:08:42.894Z,73.96
2022-12-14T03:11:32.601Z,74.74
2022-12-14T03:14:21.724Z,75.43
2022-12-14T03:17:10.140Z,75.99
2022-12-14T03:19:57.883Z,76.31
2022-12-14T03:22:45.772Z,74.97
2022-12-14T03:25:33.860Z,74.80
2022-12-14T03:28:21.801Z,73.68
2022-12-14T03:31:08.049Z,74.51
2022-12-14T03:33:56.024Z,75.72
2022-12-14T03:36:48.321Z,75.34
2022-12-14T03:39:34.904Z,75.03
2022-12-14T03:42:24.081Z,75.60
2022-12-14T03:45:16.883Z,74.69
2022-12-14T03:48:08.002Z,75.79
2022-12-14T03:50:54.419Z,74.12
2022-12-14T03:53:45.059Z,74.19
2022-12-14T03:56:38.314Z,73.05
2022-12-14T03:59:28.423Z,71.81
2022-12-14T04:02:18.434Z,69.52
2022-12-14T04:05:07.984Z,68.59
2022-12-14T04:07:57.218Z,69.90
2022-12-14T04:11:04.341Z,70.48
2022-12-14T04:14:11.661Z,68.06
2022-12-14T04:17:14.603Z,68.67
2022-12-14T04:20:04.281Z,69.07
2022-12-14T04:22:53.964Z,70.02
2022-12-14T04:25:59.548Z,69.28
2022-12-14T04:29:06.748Z,69.16
2022-12-14T04:31:56.340Z,69.46
2022-12-14T04:34:42.370Z,70.49
2022-12-14T04:37:28.609Z,71.55
2022-12-14T04:40:14.692Z,70.33
2022-12-14T04:43:02.792Z,70.05
2022-12-14T04:45:51.626Z,70.72
2022-12-14T04:48:39.957Z,71.74
2022-12-14T04:51:27.561Z,70.28
2022-12-14T04:54:17.576Z,70.95
2022-12-14T04:57:06.415Z,70.89
2022-12-14T04:59:50.669Z,68.45
2022-12-14T05:02:47.685Z,69.75
2022-12-14T05:05:37.985Z,69.54
2022-12-14T05:08:31.290Z,68.94
2022-12-14T05:11:52.077Z,69.41
2022-12-14T05:14:35.563Z,69.73
2022-12-14T05:17:19.313Z,70.28
2022-12-14T05:20:04.203Z,70.04
2022-12-14T05:22:47.314Z,69.78
2022-12-14T05:25:30.617Z,69.48
2022-12-14T05:28:14.265Z,70.44
2022-12-14T05:30:57.406Z,69.93
2022-12-14T05:33:40.714Z,71.00
2022-12-14T05:36:25.626Z,70.60
2022-12-14T05:39:08.702Z,71.19
2022-12-14T05:41:53.383Z,71.67
2022-12-14T05:44:36.821Z,72.33
2022-12-14T05:47:19.979Z,70.73
2022-12-14T05:50:03.080Z,71.51
2022-12-14T05:52:47.493Z,70.58
2022-12-14T05:55:30.565Z,70.99
2022-12-14T05:58:13.784Z,71.27
2022-12-14T06:01:01.334Z,72.33
2022-12-14T06:03:44.742Z,73.33
2022-12-14T06:06:27.904Z,74.35
2022-12-14T06:09:15.695Z,75.57
2022-12-14T06:11:58.750Z,76.04
2022-12-14T06:14:41.801Z,76.69
2022-12-14T06:17:24.966Z,76.49
2022-12-14T06:20:08.709Z,77.43
2022-12-14T06:22:51.726Z,78.26
2022-12-14T06:25:36.653Z,78.97
2022-12-14T06:28:19.747Z,79.27
2022-12-14T06:31:03.189Z,79.56
2022-12-14T06:33:46.774Z,79.28
2022-12-14T06:36:32.621Z,80.05
2022-12-14T06:39:17.905Z,79.87
2022-12-14T06:42:02.396Z,81.24
2022-12-14T06:44:45.493Z,81.51
2022-12-14T06:47:28.523Z,81.84
2022-12-14T06:50:11.657Z,81.78
2022-12-14T06:52:56.440Z,82.21
2022-12-14T06:55:39.597Z,82.15
2022-12-14T06:58:29.437Z,82.03
2022-12-14T07:01:18.395Z,81.84
2022-12-14T07:04:01.765Z,82.56
2022-12-14T07:06:44.907Z,82.79
2022-12-14T07:09:28.038Z,83.02
2022-12-14T07:12:11.095Z,83.47
2022-12-14T07:14:55.778Z,81.23
2022-12-14T07:17:38.782Z,82.02
2022-12-14T07:20:21.822Z,81.04
2022-12-14T07:23:05.004Z,80.73
2022-12-14T07:25:48.077Z,80.25
2022-12-14T07:28:33.020Z,80.37
2022-12-14T07:31:19.749Z,81.11
2022-12-14T07:34:03.121Z,80.56
2022-12-14T07:36:46.096Z,81.85
2022-12-14T07:39:29.456Z,79.87
2022-12-14T07:42:13.194Z,80.56
2022-12-14T07:44:56.255Z,80.81
2022-12-14T07:47:40.717Z,79.72
2022-12-14T07:50:24.120Z,79.40
2022-12-14T07:53:07.221Z,78.84
2022-12-14T07:55:50.729Z,77.87
2022-12-14T07:58:34.088Z,80.42
2022-12-14T08:01:20.199Z,80.22
2022-12-14T08:04:07.842Z,80.03
2022-12-14T08:06:51.095Z,80.76
2022-12-14T08:09:34.117Z,81.03
2022-12-14T08:12:17.216Z,81.25
2022-12-14T08:15:00.407Z,80.93
2022-12-14T08:17:43.462Z,81.98
2022-12-14T08:20:27.929Z,82.26
2022-12-14T08:23:11.539Z,82.29
2022-12-14T08:25:56.086Z,81.63
2022-12-14T08:28:39.255Z,81.79
2022-12-14T08:31:24.218Z,79.24
2022-12-14T08:34:07.455Z,77.77
2022-12-14T08:36:52.053Z,76.42
2022-12-14T08:39:35.144Z,76.70
2022-12-14T08:42:18.133Z,74.47
2022-12-14T08:45:01.761Z,74.19
2022-12-14T08:47:46.590Z,73.97
2022-12-14T08:50:30.434Z,74.19
2022-12-14T08:53:14.984Z,73.06
2022-12-14T08:55:58.751Z,74.37
2022-12-14T08:58:42.269Z,74.39
2022-12-14T09:01:32.880Z,71.51
2022-12-14T09:04:17.299Z,71.69
2022-12-14T09:07:00.311Z,71.32
2022-12-14T09:09:45.131Z,72.17
2022-12-14T09:12:30.141Z,71.01
2022-12-14T09:15:13.346Z,72.15
2022-12-14T09:17:56.482Z,73.06
2022-12-14T09:20:39.779Z,71.88
2022-12-14T09:23:23.149Z,73.84
2022-12-14T09:26:08.832Z,72.52
2022-12-14T09:28:53.873Z,73.19
2022-12-14T09:31:37.186Z,72.30
2022-12-14T09:34:20.517Z,71.23
2022-12-14T09:37:06.373Z,72.00
2022-12-14T09:39:49.504Z,70.49
2022-12-14T09:42:51.989Z,69.67
2022-12-14T09:45:43.412Z,69.38
2022-12-14T09:48:27.416Z,68.12
2022-12-14T09:51:16.546Z,69.77
2022-12-14T09:54:05.427Z,70.66
2022-12-14T09:56:48.590Z,70.41
2022-12-14T09:59:35.259Z,71.68
2022-12-14T10:02:31.829Z,68.79
2022-12-14T10:05:52.908Z,69.98
2022-12-14T10:08:40.600Z,70.39
2022-12-14T10:11:31.761Z,70.19
2022-12-14T10:14:22.239Z,70.94
2022-12-14T10:17:15.257Z,70.55
2022-12-14T10:20:04.517Z,70.72
2022-12-14T10:22:52.575Z,70.41
2022-12-14T10:25:40.168Z,71.54
2022-12-14T10:28:36.747Z,69.82
2022-12-14T10:31:29.988Z,68.57
2022-12-14T10:34:19.680Z,67.58
2022-12-14T10:37:18.884Z,64.92
2022-12-14T10:40:27.538Z,65.55
2022-12-14T10:43:37.604Z,61.79
2022-12-14T10:46:30.329Z,60.69
2022-12-14T10:49:19.415Z,59.82
2022-12-14T10:52:06.990Z,57.13
2022-12-14T10:54:53.737Z,58.71
2022-12-14T10:57:36.830Z,58.21
2022-12-14T11:00:23.919Z,59.65
2022-12-14T11:03:15.934Z,60.79
2022-12-14T11:06:07.982Z,61.81
2022-12-14T11:08:51.539Z,61.09
2022-12-14T11:11:34.730Z,61.22
2022-12-14T11:14:22.847Z,59.85
2022-12-14T11:17:06.229Z,59.34
2022-12-14T11:20:05.668Z,61.45
2022-12-14T11:22:52.519Z,63.49
2022-12-14T11:25:39.269Z,63.89
2022-12-14T11:28:35.988Z,65.19
2022-12-14T11:31:25.235Z,64.95
2022-12-14T11:34:22.559Z,66.21
2022-12-14T11:37:21.513Z,65.73
2022-12-14T11:40:08.077Z,64.21
2022-12-14T11:42:52.491Z,64.31
2022-12-14T11:45:38.538Z,65.00
2022-12-14T11:48:24.753Z,64.43
2022-12-14T11:51:13.050Z,63.07
2022-12-14T11:54:04.368Z,63.85
2022-12-14T11:56:51.455Z,64.07
2022-12-14T11:59:40.796Z,64.11
2022-12-14T12:02:28.530Z,65.30
2022-12-14T12:05:16.129Z,64.54
2022-12-14T12:08:02.308Z,65.19
2022-12-14T12:10:49.816Z,65.42
2022-12-14T12:13:41.405Z,65.49
2022-12-14T12:16:26.775Z,64.67
2022-12-14T12:19:13.639Z,64.71
2022-12-14T12:22:00.925Z,63.61
2022-12-14T12:25:24.249Z,61.98
2022-12-14T12:28:07.139Z,63.11
2022-12-14T12:30:56.163Z,64.09
2022-12-14T12:33:44.753Z,66.82
2022-12-14T12:36:30.332Z,64.54
2022-12-14T12:39:17.626Z,64.04
2022-12-14T12:42:11.684Z,65.36
2022-12-14T12:45:02.843Z,66.13
2022-12-14T12:47:51.935Z,64.45
2022-12-14T12:50:38.351Z,64.61
2022-12-14T12:53:26.173Z,64.10
2022-12-14T12:56:13.209Z,63.65
2022-12-14T12:59:00.103Z,62.73
2022-12-14T13:01:46.478Z,60.82
2022-12-14T13:04:36.100Z,60.46
2022-12-14T13:07:31.450Z,59.87
2022-12-14T13:10:20.827Z,57.76
2022-12-14T13:13:08.576Z,58.29
2022-12-14T13:15:54.678Z,57.74
2022-12-14T13:18:59.603Z,56.64
2022-12-14T13:21:50.309Z,56.19
2022-12-14T13:24:33.645Z,56.36
2022-12-14T13:27:41.188Z,57.28
2022-12-14T13:30:44.334Z,58.50
2022-12-14T13:33:55.405Z,59.58
2022-12-14T13:37:08.139Z,62.10
2022-12-14T13:40:18.558Z,62.56
2022-12-14T13:43:13.121Z,61.97
2022-12-14T13:45:57.145Z,61.46
2022-12-14T13:48:44.248Z,62.70
2022-12-14T13:51:30.914Z,61.24
2022-12-14T13:54:22.894Z,62.07
2022-12-14T13:57:09.280Z,61.32
2022-12-14T13:59:54.840Z,61.42
2022-12-14T14:02:53.728Z,60.14
2022-12-14T14:05:47.425Z,62.21
2022-12-14T14:08:41.546Z,62.63
2022-12-14T14:11:57.313Z,63.92
2022-12-14T14:14:52.340Z,66.74
2022-12-14T14:17:39.363Z,62.71
2022-12-14T14:20:38.387Z,61.44
2022-12-14T14:23:38.314Z,62.48
2022-12-14T14:26:27.286Z,62.89
2022-12-14T14:29:24.831Z,63.30
2022-12-14T14:32:32.489Z,62.02
2022-12-14T14:35:29.027Z,61.78
2022-12-14T14:38:26.021Z,62.41
2022-12-14T14:41:17.664Z,62.92
2022-12-14T14:44:06.158Z,64.85
2022-12-14T14:46:51.715Z,64.10
2022-12-14T14:49:39.825Z,62.47
2022-12-14T14:52:59.272Z,62.68
2022-12-14T14:55:53.992Z,64.65
2022-12-14T14:58:39.388Z,64.86
2022-12-14T15:01:26.866Z,65.60
2022-12-14T15:04:23.222Z,64.59
2022-12-14T15:07:10.023Z,64.48
2022-12-14T15:10:00.970Z,67.55
2022-12-14T15:12:50.425Z,66.98
2022-12-14T15:15:38.516Z,65.03
2022-12-14T15:18:23.729Z,64.45
2022-12-14T15:21:13.057Z,64.38
2022-12-14T15:23:57.102Z,64.74
2022-12-14T15:26:40.299Z,65.25
2022-12-14T15:29:28.525Z,66.24
2022-12-14T15:32:20.438Z,64.82
2022-12-14T15:35:07.051Z,65.27
2022-12-14T15:37:59.532Z,66.66
2022-12-14T15:40:55.565Z,65.98
2022-12-14T15:43:45.187Z,65.75
2022-12-14T15:46:31.482Z,65.83
2022-12-14T15:49:23.698Z,65.16
2022-12-14T15:52:08.458Z,64.64
2022-12-14T15:54:53.481Z,64.87
2022-12-14T15:57:40.435Z,65.30
2022-12-14T16:00:23.753Z,66.81
2022-12-14T16:03:17.392Z,63.92
2022-12-14T16:06:02.138Z,66.23
2022-12-14T16:08:51.763Z,66.87
2022-12-14T16:11:38.892Z,68.39
2022-12-14T16:14:26.326Z,67.02
2022-12-14T16:17:13.526Z,66.43
2022-12-14T16:20:01.912Z,66.90
2022-12-14T16:22:59.855Z,67.57
2022-12-14T16:25:51.998Z,66.84
2022-12-14T16:28:38.478Z,67.20
2022-12-14T16:31:24.124Z,68.50
2022-12-14T16:34:10.779Z,67.12
2022-12-14T16:37:32.105Z,68.12
2022-12-14T16:40:03.411Z,66.58
2022-12-14T16:42:46.511Z,67.41
2022-12-14T16:46:06.641Z,67.54
2022-12-14T16:49:32.729Z,66.56
2022-12-14T16:52:19.961Z,67.16
2022-12-14T16:55:13.281Z,65.71
2022-12-14T16:57:59.399Z,67.55
2022-12-14T17:00:44.149Z,66.73
2022-12-14T17:03:32.114Z,67.97
2022-12-14T17:06:24.081Z,66.02
2022-12-14T17:09:08.200Z,66.83
2022-12-14T17:11:52.306Z,65.95
2022-12-14T17:14:35.711Z,65.89
2022-12-14T17:17:23.263Z,65.51
2022-12-14T17:20:14.252Z,65.72
2022-12-14T17:22:59.779Z,68.01
2022-12-14T17:25:46.319Z,67.54
2022-12-14T17:28:34.672Z,67.04
2022-12-14T17:31:20.487Z,67.62
2022-12-14T17:34:03.629Z,68.10
2022-12-14T17:36:48.349Z,67.84
2022-12-14T17:39:35.797Z,68.21
2022-12-14T17:42:21.548Z,68.11
2022-12-14T17:45:05.456Z,63.83
2022-12-14T17:47:48.940Z,64.83
2022-12-14T17:50:32.555Z,66.54
2022-12-14T17:53:19.217Z,65.11
2022-12-14T17:56:02.849Z,64.22
2022-12-14T17:58:46.162Z,64.54
2022-12-14T18:01:29.452Z,64.34
2022-12-14T18:04:12.607Z,65.35
2022-12-14T18:06:55.767Z,65.69
2022-12-14T18:09:40.280Z,65.12
2022-12-14T18:12:25.381Z,66.13
2022-12-14T18:15:17.885Z,66.70
2022-12-14T18:18:01.009Z,68.72
2022-12-14T18:20:46.174Z,69.23
2022-12-14T18:23:33.477Z,67.89
2022-12-14T18:26:21.243Z,68.68
2022-12-14T18:29:04.481Z,70.35
2022-12-14T18:31:49.649Z,71.76
2022-12-14T18:34:33.480Z,71.36
2022-12-14T18:37:22.842Z,68.74
2022-12-14T18:40:08.157Z,67.01
2022-12-14T18:42:53.093Z,67.41
2022-12-14T18:45:38.276Z,69.04
2022-12-14T18:48:21.998Z,71.09
2022-12-14T18:51:06.138Z,73.07
2022-12-14T18:53:49.276Z,73.64
2022-12-14T18:56:32.457Z,73.86
2022-12-14T18:59:17.330Z,75.24
2022-12-14T19:02:00.708Z,75.60
2022-12-14T19:04:48.818Z,77.00
2022-12-14T19:07:32.609Z,75.69
2022-12-14T19:10:19.418Z,77.64
2022-12-14T19:13:02.631Z,77.54
2022-12-14T19:15:47.179Z,79.19
2022-12-14T19:18:32.159Z,75.61
2022-12-14T19:21:16.300Z,76.48
2022-12-14T19:24:00.481Z,76.36
2022-12-14T19:26:43.674Z,77.06
2022-12-14T19:29:33.197Z,79.66
2022-12-14T19:32:17.961Z,81.14
2022-12-14T19:35:01.659Z,80.66
2022-12-14T19:37:44.800Z,80.17
2022-12-14T19:40:27.939Z,80.31
2022-12-14T19:43:11.070Z,78.76
2022-12-14T19:45:54.244Z,80.47
2022-12-14T19:48:39.284Z,80.74
2022-12-14T19:51:23.200Z,81.82
2022-12-14T19:54:06.926Z,80.39
2022-12-14T19:56:52.038Z,81.65
2022-12-14T19:59:35.601Z,81.65
2022-12-14T20:02:18.895Z,81.90
2022-12-14T20:05:03.680Z,81.05
2022-12-14T20:07:47.015Z,79.41
2022-12-14T20:10:30.802Z,80.68
2022-12-14T20:13:13.925Z,81.50
2022-12-14T20:15:59.349Z,82.22
2022-12-14T20:18:42.512Z,83.78
2022-12-14T20:21:29.399Z,84.12
2022-12-14T20:24:13.509Z,86.24
2022-12-14T20:26:57.257Z,84.30
2022-12-14T20:29:40.588Z,87.07
2022-12-14T20:32:23.804Z,85.96
2022-12-14T20:35:07.907Z,87.27
2022-12-14T20:37:53.913Z,86.73
2022-12-14T20:40:39.026Z,86.82
2022-12-14T20:43:22.812Z,86.00
2022-12-14T20:46:07.051Z,84.62
2022-12-14T20:48:50.244Z,84.88
2022-12-14T20:51:35.299Z,84.72
2022-12-14T20:54:22.351Z,85.02
2022-12-14T20:57:05.831Z,84.94
2022-12-14T20:59:50.316Z,83.97
2022-12-14T21:02:34.311Z,83.17
2022-12-14T21:05:17.586Z,81.72
2022-12-14T21:08:00.740Z,82.86
2022-12-14T21:10:45.119Z,83.99
2022-12-14T21:13:27.505Z,84.27
2022-12-14T21:16:11.384Z,85.28
2022-12-14T21:18:54.500Z,87.30
2022-12-14T21:21:37.548Z,85.99
2022-12-14T21:24:44.642Z,86.47
2022-12-14T21:27:28.024Z,83.71
2022-12-14T21:30:12.846Z,84.17
2022-12-14T21:32:56.092Z,83.90
2022-12-14T21:35:41.550Z,82.30
2022-12-14T21:38:24.646Z,80.89
2022-12-14T21:41:25.992Z,79.63
2022-12-14T21:44:10.484Z,80.63
2022-12-14T21:46:53.732Z,81.09
2022-12-14T21:49:37.320Z,80.76
2022-12-14T21:52:23.084Z,80.07
2022-12-14T21:55:06.849Z,77.23
2022-12-14T21:58:22.204Z,77.97
2022-12-14T22:01:09.804Z,78.31
2022-12-14T22:03:53.932Z,80.13
2022-12-14T22:06:36.983Z,79.54
2022-12-14T22:09:21.439Z,80.59
2022-12-14T22:12:04.793Z,83.70
2022-12-14T22:14:49.256Z,84.17
2022-12-14T22:17:33.730Z,84.94
2022-12-14T22:20:16.960Z,87.15
2022-12-14T22:23:00.117Z,84.46
2022-12-14T22:25:50.275Z,84.29
2022-12-14T22:28:33.281Z,83.85
2022-12-14T22:31:16.480Z,84.13
2022-12-14T22:34:01.442Z,84.80
2022-12-14T22:36:44.672Z,85.05
2022-12-14T22:39:27.695Z,83.40
2022-12-14T22:42:11.085Z,83.20
2022-12-14T22:44:56.012Z,84.38
2022-12-14T22:47:39.093Z,83.33
2022-12-14T22:50:23.711Z,84.56
2022-12-14T22:53:06.788Z,87.08
2022-12-14T22:55:50.125Z,86.05
2022-12-14T22:58:34.458Z,85.98
2022-12-14T23:01:19.524Z,84.68
2022-12-14T23:04:03.444Z,85.98
2022-12-14T23:06:47.975Z,83.16
2022-12-14T23:09:48.076Z,84.78
2022-12-14T23:12:49.001Z,84.81
2022-12-14T23:15:49.487Z,85.58
2022-12-14T23:18:49.944Z,87.73
2022-12-14T23:21:50.261Z,87.32
2022-12-14T23:24:52.184Z,85.97
2022-12-14T23:27:52.634Z,85.70
2022-12-14T23:30:53.188Z,81.64
2022-12-14T23:33:53.880Z,82.11
2022-12-14T23:36:54.209Z,81.64
2022-12-14T23:39:55.980Z,81.97
2022-12-14T23:42:56.400Z,80.90
2022-12-14T23:45:57.116Z,83.20
2022-12-14T23:48:57.573Z,82.79
2022-12-14T23:51:57.895Z,84.11
2022-12-14T23:54:59.992Z,83.43
2022-12-14T23:58:00.341Z,85.04
